Time,TemperatureF,DewpointF,PressureIn,WindDirection,WindDirectionDegrees,WindSpeedMPH,WindSpeedGustMPH,Humidity,HourlyPrecipIn,Conditions,Clouds,dailyrainin,SoftwareType,DateUTC
2013-01-17 00:03:00,23.0,19.1,30.16,NE,35,0.0,0.0,85,0.00,,,0.00,VWS V13.01,2013-01-17 06:03:00,
2013-01-17 00:08:00,23.2,19.9,30.16,NNW,345,0.0,0.0,87,0.00,,,0.00,VWS V13.01,2013-01-17 06:08:00,
2013-01-17 00:13:00,23.0,19.4,30.16,NNW,344,0.0,0.0,86,0.00,,,0.00,VWS V13.01,2013-01-17 06:13:00,
2013-01-17 00:18:00,23.0,19.4,30.16,NNW,344,0.0,0.0,86,0.00,,,0.00,VWS V13.01,2013-01-17 06:18:00,
2013-01-17 00:23:00,23.2,19.6,30.16,NNW,344,0.0,0.0,86,0.00,,,0.00,VWS V13.01,2013-01-17 06:23:00,
2013-01-17 00:28:00,23.2,19.6,30.19,NNW,344,0.0,0.0,86,0.00,,,0.00,VWS V13.01,2013-01-17 06:28:00,
2013-01-17 00:33:00,23.3,19.8,30.19,East,90,0.0,0.0,86,0.00,,,0.00,VWS V13.01,2013-01-17 06:33:00,
2013-01-17 00:38:00,23.3,19.8,30.19,East,90,0.0,0.0,86,0.00,,,0.00,VWS V13.01,2013-01-17 06:38:00,
2013-01-17 00:43:00,23.7,20.4,30.19,East,90,0.0,0.0,87,0.00,,,0.00,VWS V13.01,2013-01-17 06:43:00,
2013-01-17 00:48:00,23.9,20.9,30.19,East,84,0.0,0.0,88,0.00,,,0.00,VWS V13.01,2013-01-17 06:48:00,
2013-01-17 00:53:00,24.2,21.5,30.19,ENE,60,0.0,0.0,89,0.00,,,0.00,VWS V13.01,2013-01-17 06:53:00,
2013-01-17 00:58:00,24.6,22.1,30.19,NE,48,0.0,0.0,90,0.00,,,0.00,VWS V13.01,2013-01-17 06:58:00,
2013-01-17 01:03:00,24.8,22.3,30.19,NNE,30,0.0,0.0,90,0.00,,,0.00,VWS V13.01,2013-01-17 07:03:00,
2013-01-17 01:08:00,25.0,22.2,30.19,NNE,30,0.0,0.0,89,0.00,,,0.00,VWS V13.01,2013-01-17 07:08:00,
2013-01-17 01:13:00,25.1,21.8,30.19,NNE,30,0.0,0.0,87,0.00,,,0.00,VWS V13.01,2013-01-17 07:13:00,
2013-01-17 01:18:00,25.1,21.5,30.19,NNE,31,0.0,0.0,86,0.00,,,0.00,VWS V13.01,2013-01-17 07:18:00,
2013-01-17 01:23:00,25.1,21.3,30.19,NNE,31,0.0,0.0,85,0.00,,,0.00,VWS V13.01,2013-01-17 07:23:00,
2013-01-17 01:28:00,25.3,21.7,30.19,North,360,0.0,0.0,86,0.00,,,0.00,VWS V13.01,2013-01-17 07:28:00,
2013-01-17 01:33:00,25.3,21.7,30.19,North,360,0.0,0.0,86,0.00,,,0.00,VWS V13.01,2013-01-17 07:33:00,
2013-01-17 01:38:00,25.5,21.9,30.19,North,360,0.0,0.0,86,0.00,,,0.00,VWS V13.01,2013-01-17 07:38:00,
2013-01-17 01:43:00,25.7,22.1,30.19,North,360,0.0,0.0,86,0.00,,,0.00,VWS V13.01,2013-01-17 07:43:00,
2013-01-17 01:48:00,25.9,22.3,30.19,NNE,24,0.0,0.0,86,0.00,,,0.00,VWS V13.01,2013-01-17 07:48:00,
2013-01-17 01:53:00,26.0,22.4,30.19,NNE,24,0.0,0.0,86,0.00,,,0.00,VWS V13.01,2013-01-17 07:53:00,
2013-01-17 01:58:00,26.2,22.3,30.19,NNE,24,0.0,0.0,85,0.00,,,0.00,VWS V13.01,2013-01-17 07:58:00,
2013-01-17 02:03:00,26.4,22.2,30.19,NNE,24,0.0,0.0,84,0.00,,,0.00,VWS V13.01,2013-01-17 08:03:00,
2013-01-17 02:08:00,26.6,22.1,30.19,North,9,0.0,0.0,83,0.00,,,0.00,VWS V13.01,2013-01-17 08:08:00,
2013-01-17 02:13:00,26.6,22.4,30.19,NNW,337,0.0,0.0,84,0.00,,,0.00,VWS V13.01,2013-01-17 08:13:00,
2013-01-17 02:18:00,26.8,22.3,30.19,NNW,337,0.0,0.0,83,0.00,,,0.00,VWS V13.01,2013-01-17 08:18:00,
2013-01-17 02:23:00,26.9,22.5,30.19,NNW,337,0.0,0.0,83,0.00,,,0.00,VWS V13.01,2013-01-17 08:23:00,
2013-01-17 02:27:00,27.1,22.6,30.19,NNW,337,0.0,0.0,83,0.00,,,0.00,VWS V13.01,2013-01-17 08:27:00,
2013-01-17 02:32:00,27.1,22.6,30.19,NNW,337,0.0,0.0,83,0.00,,,0.00,VWS V13.01,2013-01-17 08:32:00,
2013-01-17 02:37:00,27.1,22.4,30.19,NNW,337,0.0,0.0,82,0.00,,,0.00,VWS V13.01,2013-01-17 08:37:00,
2013-01-17 02:43:00,27.1,22.4,30.19,NE,38,0.0,0.0,82,0.00,,,0.00,VWS V13.01,2013-01-17 08:43:00,
2013-01-17 02:47:00,26.9,22.2,30.19,NE,38,0.0,0.0,82,0.00,,,0.00,VWS V13.01,2013-01-17 08:47:00,
2013-01-17 02:52:00,26.8,22.3,30.19,NE,38,0.0,0.0,83,0.00,,,0.00,VWS V13.01,2013-01-17 08:52:00,
2013-01-17 02:57:00,26.6,22.1,30.19,NE,38,0.0,0.0,83,0.00,,,0.00,VWS V13.01,2013-01-17 08:57:00,
2013-01-17 03:02:00,26.6,22.1,30.19,NE,38,0.0,0.0,83,0.00,,,0.00,VWS V13.01,2013-01-17 09:02:00,
2013-01-17 03:07:00,26.2,21.8,30.19,NE,38,0.0,0.0,83,0.00,,,0.00,VWS V13.01,2013-01-17 09:07:00,
2013-01-17 03:12:00,26.0,21.6,30.19,NE,38,0.0,0.0,83,0.00,,,0.00,VWS V13.01,2013-01-17 09:12:00,
2013-01-17 03:17:00,26.0,21.9,30.19,NE,38,0.0,0.0,84,0.00,,,0.00,VWS V13.01,2013-01-17 09:17:00,
2013-01-17 03:22:00,25.9,21.7,30.19,NE,38,0.0,0.0,84,0.00,,,0.00,VWS V13.01,2013-01-17 09:22:00,
2013-01-17 03:27:00,25.9,22.0,30.19,NE,38,0.0,0.0,85,0.00,,,0.00,VWS V13.01,2013-01-17 09:27:00,
2013-01-17 03:32:00,25.7,22.4,30.19,NE,38,0.0,0.0,87,0.00,,,0.00,VWS V13.01,2013-01-17 09:32:00,
2013-01-17 03:37:00,25.5,22.2,30.19,NE,38,0.0,0.0,87,0.00,,,0.00,VWS V13.01,2013-01-17 09:37:00,
2013-01-17 03:42:00,25.3,22.3,30.19,NNE,13,0.0,0.0,88,0.00,,,0.00,VWS V13.01,2013-01-17 09:42:00,
2013-01-17 03:47:00,25.1,22.4,30.19,NNE,13,0.0,0.0,89,0.00,,,0.00,VWS V13.01,2013-01-17 09:47:00,
2013-01-17 03:52:00,25.1,22.4,30.19,NNE,13,0.0,0.0,89,0.00,,,0.00,VWS V13.01,2013-01-17 09:52:00,
2013-01-17 03:57:00,25.0,22.2,30.19,NNE,33,0.0,0.0,89,0.00,,,0.00,VWS V13.01,2013-01-17 09:57:00,
2013-01-17 04:02:00,25.0,22.5,30.19,NNE,23,0.0,0.0,90,0.00,,,0.00,VWS V13.01,2013-01-17 10:02:00,
2013-01-17 04:07:00,25.0,23.0,30.19,NNW,347,0.0,0.0,92,0.00,,,0.00,VWS V13.01,2013-01-17 10:07:00,
2013-01-17 04:12:00,24.8,22.8,30.19,ENE,70,0.0,0.0,92,0.00,,,0.00,VWS V13.01,2013-01-17 10:12:00,
2013-01-17 04:17:00,24.6,22.6,30.19,ENE,70,0.0,0.0,92,0.00,,,0.00,VWS V13.01,2013-01-17 10:17:00,
2013-01-17 04:22:00,24.2,22.0,30.19,ENE,70,0.0,0.0,91,0.00,,,0.00,VWS V13.01,2013-01-17 10:22:00,
2013-01-17 04:27:00,24.4,22.4,30.19,ENE,70,0.0,0.0,92,0.00,,,0.00,VWS V13.01,2013-01-17 10:27:00,
2013-01-17 04:32:00,24.6,22.6,30.19,ENE,70,0.0,0.0,92,0.00,,,0.00,VWS V13.01,2013-01-17 10:32:00,
2013-01-17 04:37:00,24.4,22.4,30.19,North,10,0.0,0.0,92,0.00,,,0.00,VWS V13.01,2013-01-17 10:37:00,
2013-01-17 04:42:00,24.2,22.0,30.19,WNW,302,0.0,0.0,91,0.00,,,0.00,VWS V13.01,2013-01-17 10:42:00,
2013-01-17 04:47:00,23.9,21.6,30.22,NW,310,0.0,0.0,91,0.00,,,0.00,VWS V13.01,2013-01-17 10:47:00,
2013-01-17 04:52:00,23.5,21.3,30.22,WNW,302,0.0,0.0,91,0.00,,,0.00,VWS V13.01,2013-01-17 10:52:00,
2013-01-17 04:57:00,23.5,21.3,30.22,WNW,302,0.0,0.0,91,0.00,,,0.00,VWS V13.01,2013-01-17 10:57:00,
2013-01-17 05:02:00,23.5,21.3,30.19,NNW,348,0.0,0.0,91,0.00,,,0.00,VWS V13.01,2013-01-17 11:02:00,
2013-01-17 05:07:00,23.3,21.1,30.19,NNW,346,0.0,0.0,91,0.00,,,0.00,VWS V13.01,2013-01-17 11:07:00,
2013-01-17 05:12:00,23.3,21.4,30.19,NNW,346,0.0,0.0,92,0.00,,,0.00,VWS V13.01,2013-01-17 11:12:00,
2013-01-17 05:17:00,23.2,21.2,30.22,ENE,63,0.0,0.0,92,0.00,,,0.00,VWS V13.01,2013-01-17 11:17:00,
2013-01-17 05:22:00,23.2,21.2,30.22,West,273,0.0,0.0,92,0.00,,,0.00,VWS V13.01,2013-01-17 11:22:00,
2013-01-17 05:27:00,23.2,21.2,30.22,SW,219,0.0,0.0,92,0.00,,,0.00,VWS V13.01,2013-01-17 11:27:00,
2013-01-17 05:32:00,23.2,21.4,30.22,NNW,340,0.0,0.0,93,0.00,,,0.00,VWS V13.01,2013-01-17 11:32:00,
2013-01-17 05:37:00,23.3,21.6,30.22,NNW,336,0.0,0.0,93,0.00,,,0.00,VWS V13.01,2013-01-17 11:37:00,
2013-01-17 05:42:00,24.1,22.3,30.22,SW,235,2.2,2.2,93,0.00,,,0.00,VWS V13.01,2013-01-17 11:42:00,
2013-01-17 05:47:00,24.2,22.0,30.22,NW,318,0.0,0.0,91,0.00,,,0.00,VWS V13.01,2013-01-17 11:47:00,
2013-01-17 05:52:00,24.6,21.3,30.22,WSW,240,0.0,0.0,87,0.00,,,0.00,VWS V13.01,2013-01-17 11:52:00,
2013-01-17 05:57:00,24.8,20.6,30.22,NW,310,0.0,0.0,84,0.00,,,0.00,VWS V13.01,2013-01-17 11:57:00,
2013-01-17 06:02:00,24.6,20.2,30.22,WSW,245,0.0,0.0,83,0.00,,,0.00,VWS V13.01,2013-01-17 12:02:00,
2013-01-17 06:07:00,23.3,19.0,30.22,NNE,33,3.1,4.0,83,0.00,,,0.00,VWS V13.01,2013-01-17 12:07:00,
2013-01-17 06:12:00,23.0,19.4,30.22,NNE,16,0.0,0.0,86,0.00,,,0.00,VWS V13.01,2013-01-17 12:12:00,
2013-01-17 06:17:00,22.8,19.8,30.22,WSW,258,0.0,0.0,88,0.00,,,0.00,VWS V13.01,2013-01-17 12:17:00,
2013-01-17 06:22:00,23.0,20.2,30.22,SW,229,3.6,3.6,89,0.00,,,0.00,VWS V13.01,2013-01-17 12:22:00,
2013-01-17 06:27:00,23.9,21.4,30.22,SW,215,3.1,3.6,90,0.00,,,0.00,VWS V13.01,2013-01-17 12:27:00,
2013-01-17 06:32:00,24.6,21.8,30.22,SW,222,4.0,4.0,89,0.00,,,0.00,VWS V13.01,2013-01-17 12:32:00,
2013-01-17 06:37:00,25.0,20.2,30.22,SW,226,4.0,4.9,82,0.00,,,0.00,VWS V13.01,2013-01-17 12:37:00,
2013-01-17 06:42:00,25.5,19.9,30.22,SW,221,5.8,5.8,79,0.00,,,0.00,VWS V13.01,2013-01-17 12:42:00,
2013-01-17 06:47:00,26.4,20.5,30.25,SSW,198,0.0,0.0,78,0.00,,,0.00,VWS V13.01,2013-01-17 12:47:00,
2013-01-17 06:52:00,26.0,18.9,30.25,SE,126,0.0,0.0,74,0.00,,,0.00,VWS V13.01,2013-01-17 12:52:00,
2013-01-17 06:57:00,25.9,18.7,30.25,SSW,205,0.0,0.0,74,0.00,,,0.00,VWS V13.01,2013-01-17 12:57:00,
2013-01-17 07:02:00,25.7,19.2,30.25,SW,220,3.1,3.1,76,0.00,,,0.00,VWS V13.01,2013-01-17 13:02:00,
2013-01-17 07:07:00,25.9,19.7,30.25,SW,234,2.7,3.6,77,0.00,,,0.00,VWS V13.01,2013-01-17 13:07:00,
2013-01-17 07:12:00,25.9,19.4,30.25,WSW,245,2.7,2.7,76,0.00,,,0.00,VWS V13.01,2013-01-17 13:12:00,
2013-01-17 07:17:00,25.9,19.4,30.25,WSW,251,0.0,0.0,76,0.00,,,0.00,VWS V13.01,2013-01-17 13:17:00,
2013-01-17 07:22:00,25.7,19.2,30.25,WSW,251,0.0,0.0,76,0.00,,,0.00,VWS V13.01,2013-01-17 13:22:00,
2013-01-17 07:27:00,25.1,18.3,30.25,WSW,251,0.0,0.0,75,0.00,,,0.00,VWS V13.01,2013-01-17 13:27:00,
2013-01-17 07:32:00,24.6,18.4,30.25,West,275,0.0,0.0,77,0.00,,,0.00,VWS V13.01,2013-01-17 13:32:00,
2013-01-17 07:37:00,24.1,17.9,30.25,West,275,0.0,0.0,77,0.00,,,0.00,VWS V13.01,2013-01-17 13:37:00,
2013-01-17 07:42:00,24.1,18.5,30.25,West,275,0.0,0.0,79,0.00,,,0.00,VWS V13.01,2013-01-17 13:42:00,
2013-01-17 07:47:00,23.9,18.9,30.28,WNW,282,0.0,0.0,81,0.00,,,0.00,VWS V13.01,2013-01-17 13:47:00,
2013-01-17 07:52:00,23.9,19.5,30.28,WNW,296,0.0,0.0,83,0.00,,,0.00,VWS V13.01,2013-01-17 13:52:00,
2013-01-17 07:57:00,24.1,19.9,30.28,NNE,18,0.0,0.0,84,0.00,,,0.00,VWS V13.01,2013-01-17 13:57:00,
2013-01-17 08:02:00,24.4,20.3,30.28,NNE,19,0.0,0.0,84,0.00,,,0.00,VWS V13.01,2013-01-17 14:02:00,
2013-01-17 08:07:00,24.6,20.5,30.28,NNE,19,0.0,0.0,84,0.00,,,0.00,VWS V13.01,2013-01-17 14:07:00,
2013-01-17 08:12:00,25.0,20.5,30.28,NNE,18,2.2,2.2,83,0.00,,,0.00,VWS V13.01,2013-01-17 14:12:00,
2013-01-17 08:17:00,25.3,20.9,30.28,NNE,18,0.0,0.0,83,0.00,,,0.00,VWS V13.01,2013-01-17 14:17:00,
2013-01-17 08:22:00,25.7,21.2,30.28,North,360,0.0,0.0,83,0.00,,,0.00,VWS V13.01,2013-01-17 14:22:00,
2013-01-17 08:27:00,26.2,21.5,30.28,NE,34,2.7,3.1,82,0.00,,,0.00,VWS V13.01,2013-01-17 14:27:00,
2013-01-17 08:32:00,27.3,22.0,30.28,NE,48,2.7,2.7,80,0.00,,,0.00,VWS V13.01,2013-01-17 14:32:00,
2013-01-17 08:37:00,28.0,21.8,30.28,NNE,21,0.0,0.0,77,0.00,,,0.00,VWS V13.01,2013-01-17 14:37:00,
2013-01-17 08:42:00,28.6,21.0,30.28,North,1,0.0,0.0,73,0.00,,,0.00,VWS V13.01,2013-01-17 14:42:00,
2013-01-17 08:47:00,29.3,21.7,30.31,North,1,0.0,0.0,73,0.00,,,0.00,VWS V13.01,2013-01-17 14:47:00,
2013-01-17 08:52:00,30.4,22.4,30.31,North,1,0.0,0.0,72,0.00,,,0.00,VWS V13.01,2013-01-17 14:52:00,
2013-01-17 08:57:00,30.7,22.1,30.31,WSW,254,0.0,0.0,70,0.00,,,0.00,VWS V13.01,2013-01-17 14:57:00,
2013-01-17 09:02:00,30.5,21.6,30.31,WSW,242,0.0,0.0,69,0.00,,,0.00,VWS V13.01,2013-01-17 15:02:00,
2013-01-17 09:07:00,30.9,22.3,30.31,WSW,257,0.0,0.0,70,0.00,,,0.00,VWS V13.01,2013-01-17 15:07:00,
2013-01-17 09:12:00,31.3,22.6,30.31,WSW,245,2.7,3.1,70,0.00,,,0.00,VWS V13.01,2013-01-17 15:12:00,
2013-01-17 09:17:00,31.8,23.1,30.31,WSW,237,2.7,3.6,70,0.00,,,0.00,VWS V13.01,2013-01-17 15:17:00,
2013-01-17 09:22:00,32.5,23.5,30.31,WSW,254,2.2,3.6,69,0.00,,,0.00,VWS V13.01,2013-01-17 15:22:00,
2013-01-17 09:27:00,33.4,24.0,30.31,WSW,249,0.0,0.0,68,0.00,,,0.00,VWS V13.01,2013-01-17 15:27:00,
2013-01-17 09:32:00,34.1,23.6,30.31,West,264,5.4,5.8,65,0.00,,,0.00,VWS V13.01,2013-01-17 15:32:00,
2013-01-17 09:37:00,34.9,24.3,30.31,SW,222,3.6,5.8,65,0.00,,,0.00,VWS V13.01,2013-01-17 15:37:00,
2013-01-17 09:42:00,35.6,24.2,30.31,SW,218,3.6,3.6,63,0.00,,,0.00,VWS V13.01,2013-01-17 15:42:00,
2013-01-17 09:47:00,36.1,24.4,30.31,WSW,251,3.1,3.6,62,0.00,,,0.00,VWS V13.01,2013-01-17 15:47:00,
2013-01-17 09:52:00,36.7,24.9,30.31,WSW,251,2.2,2.7,62,0.00,,,0.00,VWS V13.01,2013-01-17 15:52:00,
2013-01-17 09:57:00,37.0,24.8,30.31,West,261,2.7,6.3,61,0.00,,,0.00,VWS V13.01,2013-01-17 15:57:00,
2013-01-17 10:02:00,37.6,25.7,30.34,WSW,241,4.9,4.9,62,0.00,,,0.00,VWS V13.01,2013-01-17 16:02:00,
2013-01-17 10:07:00,38.3,26.0,30.34,WSW,240,3.6,5.4,61,0.00,,,0.00,VWS V13.01,2013-01-17 16:07:00,
2013-01-17 10:12:00,38.8,26.1,30.34,SW,214,3.6,4.0,60,0.00,,,0.00,VWS V13.01,2013-01-17 16:12:00,
2013-01-17 10:17:00,39.5,26.8,30.34,WSW,242,5.8,5.8,60,0.00,,,0.00,VWS V13.01,2013-01-17 16:17:00,
2013-01-17 10:22:00,40.3,27.1,30.34,WSW,247,5.4,7.2,59,0.00,,,0.00,VWS V13.01,2013-01-17 16:22:00,
2013-01-17 10:27:00,41.0,27.8,30.34,WSW,243,3.1,5.8,59,0.00,,,0.00,VWS V13.01,2013-01-17 16:27:00,
2013-01-17 10:32:00,41.7,28.0,30.34,SSW,209,4.9,5.8,58,0.00,,,0.00,VWS V13.01,2013-01-17 16:32:00,
2013-01-17 10:37:00,42.2,28.5,30.34,SW,218,4.9,6.3,58,0.00,,,0.00,VWS V13.01,2013-01-17 16:37:00,
2013-01-17 10:42:00,43.1,29.4,30.34,SW,234,4.9,4.9,58,0.00,,,0.00,VWS V13.01,2013-01-17 16:42:00,
2013-01-17 10:46:00,44.0,29.8,30.34,WSW,241,5.8,6.3,57,0.00,,,0.00,VWS V13.01,2013-01-17 16:46:00,
2013-01-17 10:51:00,44.6,29.9,30.34,South,191,6.3,6.3,56,0.00,,,0.00,VWS V13.01,2013-01-17 16:51:00,
2013-01-17 10:56:00,44.8,30.0,30.34,SW,233,5.4,5.8,56,0.00,,,0.00,VWS V13.01,2013-01-17 16:56:00,
2013-01-17 11:01:00,44.9,30.2,30.34,South,181,8.7,8.7,56,0.00,,,0.00,VWS V13.01,2013-01-17 17:01:00,
2013-01-17 11:06:00,44.9,30.2,30.34,SSW,197,5.4,6.3,56,0.00,,,0.00,VWS V13.01,2013-01-17 17:06:00,
2013-01-17 11:11:00,44.8,30.0,30.34,SSW,203,5.8,7.6,56,0.00,,,0.00,VWS V13.01,2013-01-17 17:11:00,
2013-01-17 11:16:00,44.8,30.5,30.34,SSW,208,7.6,8.7,57,0.00,,,0.00,VWS V13.01,2013-01-17 17:16:00,
2013-01-17 11:21:00,45.1,30.8,30.34,SSE,165,5.4,7.6,57,0.00,,,0.00,VWS V13.01,2013-01-17 17:21:00,
2013-01-17 11:26:00,45.5,30.7,30.34,South,188,5.8,6.3,56,0.00,,,0.00,VWS V13.01,2013-01-17 17:26:00,
2013-01-17 11:31:00,46.0,31.2,30.34,SSW,202,5.4,7.6,56,0.00,,,0.00,VWS V13.01,2013-01-17 17:31:00,
2013-01-17 11:36:00,46.4,30.2,30.34,South,170,3.6,7.6,53,0.00,,,0.00,VWS V13.01,2013-01-17 17:36:00,
2013-01-17 11:41:00,46.6,31.3,30.34,SSW,204,6.3,6.3,55,0.00,,,0.00,VWS V13.01,2013-01-17 17:41:00,
2013-01-17 11:46:00,47.1,30.9,30.34,South,180,7.2,8.1,53,0.00,,,0.00,VWS V13.01,2013-01-17 17:46:00,
2013-01-17 11:51:00,47.1,30.9,30.34,SSW,200,5.8,5.8,53,0.00,,,0.00,VWS V13.01,2013-01-17 17:51:00,
2013-01-17 11:56:00,47.8,31.5,30.34,South,178,5.8,6.3,53,0.00,,,0.00,VWS V13.01,2013-01-17 17:56:00,
2013-01-17 12:01:00,48.2,31.4,30.34,North,8,4.0,4.0,52,0.00,,,0.00,VWS V13.01,2013-01-17 18:01:00,
2013-01-17 12:06:00,49.4,31.6,30.34,NW,318,4.9,5.4,50,0.00,,,0.00,VWS V13.01,2013-01-17 18:06:00,
2013-01-17 12:11:00,50.0,31.6,30.34,NNW,347,8.7,11.0,49,0.00,,,0.00,VWS V13.01,2013-01-17 18:11:00,
2013-01-17 12:16:00,50.9,32.4,30.31,NNW,345,6.3,6.3,49,0.00,,,0.00,VWS V13.01,2013-01-17 18:16:00,
2013-01-17 12:21:00,50.7,31.7,30.31,NW,309,4.0,5.8,48,0.00,,,0.00,VWS V13.01,2013-01-17 18:21:00,
2013-01-17 12:26:00,51.2,32.8,30.31,NW,326,5.8,6.3,49,0.00,,,0.00,VWS V13.01,2013-01-17 18:26:00,
2013-01-17 12:31:00,50.3,31.4,30.31,WNW,296,6.3,7.6,48,0.00,,,0.00,VWS V13.01,2013-01-17 18:31:00,
2013-01-17 12:36:00,50.3,31.4,30.31,NW,318,2.7,3.1,48,0.00,,,0.00,VWS V13.01,2013-01-17 18:36:00,
2013-01-17 12:41:00,51.6,32.0,30.31,WNW,302,5.4,5.4,47,0.00,,,0.00,VWS V13.01,2013-01-17 18:41:00,
2013-01-17 12:46:00,51.8,32.2,30.31,NNW,336,5.4,5.8,47,0.00,,,0.00,VWS V13.01,2013-01-17 18:46:00,
2013-01-17 12:51:00,51.6,32.6,30.31,NNE,31,4.0,5.4,48,0.00,,,0.00,VWS V13.01,2013-01-17 18:51:00,
2013-01-17 12:56:00,51.8,32.2,30.31,North,353,3.1,4.9,47,0.00,,,0.00,VWS V13.01,2013-01-17 18:56:00,
2013-01-17 13:01:00,52.1,32.5,30.31,North,349,5.8,5.8,47,0.00,,,0.00,VWS V13.01,2013-01-17 19:01:00,
2013-01-17 13:06:00,52.1,32.5,30.31,NNW,330,6.3,6.3,47,0.00,,,0.00,VWS V13.01,2013-01-17 19:06:00,
2013-01-17 13:11:00,52.0,32.4,30.31,NW,321,4.0,4.9,47,0.00,,,0.00,VWS V13.01,2013-01-17 19:11:00,
2013-01-17 13:16:00,52.1,32.0,30.31,NNE,13,3.1,6.7,46,0.00,,,0.00,VWS V13.01,2013-01-17 19:16:00,
2013-01-17 13:21:00,52.3,32.2,30.31,NNW,337,3.1,8.3,46,0.00,,,0.00,VWS V13.01,2013-01-17 19:21:00,
2013-01-17 13:26:00,52.1,32.0,30.31,NW,319,4.0,6.7,46,0.00,,,0.00,VWS V13.01,2013-01-17 19:26:00,
2013-01-17 13:31:00,52.5,32.3,30.31,North,357,5.4,5.8,46,0.00,,,0.00,VWS V13.01,2013-01-17 19:31:00,
2013-01-17 13:36:00,52.0,31.8,30.31,NW,324,5.4,5.4,46,0.00,,,0.00,VWS V13.01,2013-01-17 19:36:00,
2013-01-17 13:41:00,52.0,31.8,30.31,WNW,301,8.7,8.7,46,0.00,,,0.00,VWS V13.01,2013-01-17 19:41:00,
2013-01-17 13:46:00,52.0,31.8,30.31,WSW,254,4.0,5.4,46,0.00,,,0.00,VWS V13.01,2013-01-17 19:46:00,
2013-01-17 13:51:00,52.9,32.7,30.31,NNW,338,5.4,5.8,46,0.00,,,0.00,VWS V13.01,2013-01-17 19:51:00,
2013-01-17 13:56:00,52.9,32.1,30.31,NW,322,6.3,8.7,45,0.00,,,0.00,VWS V13.01,2013-01-17 19:56:00,
2013-01-17 14:01:00,52.7,32.5,30.31,NNE,19,5.8,5.8,46,0.00,,,0.00,VWS V13.01,2013-01-17 20:01:00,
2013-01-17 14:06:00,53.0,32.3,30.31,NNW,328,8.7,8.7,45,0.00,,,0.00,VWS V13.01,2013-01-17 20:06:00,
2013-01-17 14:11:00,52.9,31.0,30.31,NNE,12,8.7,8.7,43,0.00,,,0.00,VWS V13.01,2013-01-17 20:11:00,
2013-01-17 14:16:00,53.4,32.6,30.31,NW,321,5.4,6.3,45,0.00,,,0.00,VWS V13.01,2013-01-17 20:16:00,
2013-01-17 14:21:00,53.4,30.9,30.31,NNW,327,6.3,6.3,42,0.00,,,0.00,VWS V13.01,2013-01-17 20:21:00,
2013-01-17 14:26:00,53.0,31.2,30.31,NNW,339,6.3,7.6,43,0.00,,,0.00,VWS V13.01,2013-01-17 20:26:00,
2013-01-17 14:31:00,53.0,31.2,30.34,NW,316,5.4,5.4,43,0.00,,,0.00,VWS V13.01,2013-01-17 20:31:00,
2013-01-17 14:36:00,53.0,31.2,30.34,NNW,346,5.4,8.3,43,0.00,,,0.00,VWS V13.01,2013-01-17 20:36:00,
2013-01-17 14:41:00,52.9,31.0,30.34,NNE,14,5.4,5.4,43,0.00,,,0.00,VWS V13.01,2013-01-17 20:41:00,
2013-01-17 14:46:00,53.2,31.3,30.34,North,5,5.4,5.4,43,0.00,,,0.00,VWS V13.01,2013-01-17 20:46:00,
2013-01-17 14:51:00,53.4,30.9,30.34,NNW,338,4.9,5.8,42,0.00,,,0.00,VWS V13.01,2013-01-17 20:51:00,
2013-01-17 14:56:00,53.2,31.3,30.34,North,353,5.4,7.6,43,0.00,,,0.00,VWS V13.01,2013-01-17 20:56:00,
2013-01-17 15:01:00,52.9,31.0,30.34,WNW,300,8.7,9.6,43,0.00,,,0.00,VWS V13.01,2013-01-17 21:01:00,
2013-01-17 15:06:00,52.7,30.8,30.34,West,267,4.9,4.9,43,0.00,,,0.00,VWS V13.01,2013-01-17 21:06:00,
2013-01-17 15:11:00,53.0,31.2,30.34,NW,310,4.9,4.9,43,0.00,,,0.00,VWS V13.01,2013-01-17 21:11:00,
2013-01-17 15:16:00,52.9,32.1,30.34,WNW,296,3.1,3.1,45,0.00,,,0.00,VWS V13.01,2013-01-17 21:16:00,
2013-01-17 15:21:00,52.5,30.7,30.34,NW,312,2.7,3.6,43,0.00,,,0.00,VWS V13.01,2013-01-17 21:21:00,
2013-01-17 15:26:00,52.3,30.5,30.34,WNW,292,5.8,6.3,43,0.00,,,0.00,VWS V13.01,2013-01-17 21:26:00,
2013-01-17 15:31:00,51.8,31.1,30.34,NW,322,5.4,5.4,45,0.00,,,0.00,VWS V13.01,2013-01-17 21:31:00,
2013-01-17 15:36:00,52.0,31.3,30.34,West,263,5.4,5.4,45,0.00,,,0.00,VWS V13.01,2013-01-17 21:36:00,
2013-01-17 15:41:00,51.8,30.0,30.34,NW,307,7.6,7.6,43,0.00,,,0.00,VWS V13.01,2013-01-17 21:41:00,
2013-01-17 15:46:00,51.8,30.0,30.34,WNW,295,8.1,8.3,43,0.00,,,0.00,VWS V13.01,2013-01-17 21:46:00,
2013-01-17 15:51:00,51.8,31.1,30.34,West,268,6.3,6.3,45,0.00,,,0.00,VWS V13.01,2013-01-17 21:51:00,
2013-01-17 15:56:00,51.1,29.4,30.34,WNW,302,8.3,8.3,43,0.00,,,0.00,VWS V13.01,2013-01-17 21:56:00,
2013-01-17 16:01:00,50.9,30.9,30.37,West,278,4.0,8.1,46,0.00,,,0.00,VWS V13.01,2013-01-17 22:01:00,
2013-01-17 16:06:00,50.9,29.2,30.37,WNW,303,10.5,10.5,43,0.00,,,0.00,VWS V13.01,2013-01-17 22:06:00,
2013-01-17 16:11:00,50.5,28.9,30.37,WNW,289,7.6,7.6,43,0.00,,,0.00,VWS V13.01,2013-01-17 22:11:00,
2013-01-17 16:16:00,50.5,30.5,30.37,WNW,301,4.0,6.3,46,0.00,,,0.00,VWS V13.01,2013-01-17 22:16:00,
2013-01-17 16:21:00,50.5,30.5,30.37,NW,305,4.9,4.9,46,0.00,,,0.00,VWS V13.01,2013-01-17 22:21:00,
2013-01-17 16:26:00,50.3,30.4,30.37,NW,315,4.9,5.8,46,0.00,,,0.00,VWS V13.01,2013-01-17 22:26:00,
2013-01-17 16:31:00,50.2,28.5,30.37,NW,324,8.7,9.2,43,0.00,,,0.00,VWS V13.01,2013-01-17 22:31:00,
2013-01-17 16:36:00,49.8,29.9,30.37,NNW,335,6.3,12.8,46,0.00,,,0.00,VWS V13.01,2013-01-17 22:36:00,
2013-01-17 16:41:00,49.6,29.7,30.37,NW,318,6.3,6.3,46,0.00,,,0.00,VWS V13.01,2013-01-17 22:41:00,
2013-01-17 16:46:00,49.6,29.7,30.37,NNW,331,5.4,5.4,46,0.00,,,0.00,VWS V13.01,2013-01-17 22:46:00,
2013-01-17 16:51:00,49.3,29.4,30.37,NNW,336,4.9,4.9,46,0.00,,,0.00,VWS V13.01,2013-01-17 22:51:00,
2013-01-17 16:56:00,49.1,29.2,30.37,NNW,337,3.6,3.6,46,0.00,,,0.00,VWS V13.01,2013-01-17 22:56:00,
2013-01-17 17:01:00,48.7,28.9,30.40,NW,308,4.9,8.7,46,0.00,,,0.00,VWS V13.01,2013-01-17 23:01:00,
2013-01-17 17:06:00,48.2,28.4,30.40,WNW,294,4.9,4.9,46,0.00,,,0.00,VWS V13.01,2013-01-17 23:06:00,
2013-01-17 17:11:00,47.8,28.1,30.40,NW,311,5.4,10.1,46,0.00,,,0.00,VWS V13.01,2013-01-17 23:11:00,
2013-01-17 17:16:00,47.6,27.9,30.40,NW,306,7.2,7.2,46,0.00,,,0.00,VWS V13.01,2013-01-17 23:16:00,
2013-01-17 17:21:00,47.1,27.4,30.40,NW,323,4.0,4.5,46,0.00,,,0.00,VWS V13.01,2013-01-17 23:21:00,
2013-01-17 17:26:00,46.7,27.6,30.40,NNW,346,3.6,4.0,47,0.00,,,0.00,VWS V13.01,2013-01-17 23:26:00,
2013-01-17 17:31:00,46.6,27.4,30.40,NNW,331,2.7,4.0,47,0.00,,,0.00,VWS V13.01,2013-01-17 23:31:00,
2013-01-17 17:36:00,46.2,27.1,30.40,NNW,346,3.6,3.6,47,0.00,,,0.00,VWS V13.01,2013-01-17 23:36:00,
2013-01-17 17:41:00,45.8,26.8,30.40,North,355,0.0,2.2,47,0.00,,,0.00,VWS V13.01,2013-01-17 23:41:00,
2013-01-17 17:46:00,45.3,26.3,30.40,NNE,24,2.7,3.6,47,0.00,,,0.00,VWS V13.01,2013-01-17 23:46:00,
2013-01-17 17:51:00,45.3,26.3,30.40,NNE,13,2.7,2.7,47,0.00,,,0.00,VWS V13.01,2013-01-17 23:51:00,
2013-01-17 17:56:00,45.1,26.1,30.40,NNE,17,2.7,3.1,47,0.00,,,0.00,VWS V13.01,2013-01-17 23:56:00,
2013-01-17 18:01:00,44.8,26.3,30.40,NNE,17,2.7,2.7,48,0.00,,,0.00,VWS V13.01,2013-01-18 00:01:00,
2013-01-17 18:06:00,44.0,25.6,30.40,NNE,17,2.7,2.7,48,0.00,,,0.00,VWS V13.01,2013-01-18 00:06:00,
2013-01-17 18:11:00,43.3,25.5,30.40,NNE,19,0.0,2.2,49,0.00,,,0.00,VWS V13.01,2013-01-18 00:11:00,
2013-01-17 18:16:00,42.4,25.1,30.40,NNE,19,2.7,2.7,50,0.00,,,0.00,VWS V13.01,2013-01-18 00:16:00,
2013-01-17 18:21:00,41.7,24.9,30.40,NNE,19,2.2,2.7,51,0.00,,,0.00,VWS V13.01,2013-01-18 00:21:00,
2013-01-17 18:26:00,41.0,25.2,30.40,NNE,19,2.7,2.7,53,0.00,,,0.00,VWS V13.01,2013-01-18 00:26:00,
2013-01-17 18:31:00,40.1,24.8,30.40,NNE,19,0.0,2.2,54,0.00,,,0.00,VWS V13.01,2013-01-18 00:31:00,
2013-01-17 18:36:00,39.5,25.1,30.40,NNE,19,2.2,2.2,56,0.00,,,0.00,VWS V13.01,2013-01-18 00:36:00,
2013-01-17 18:41:00,39.2,25.7,30.40,NNE,19,2.7,3.1,58,0.00,,,0.00,VWS V13.01,2013-01-18 00:41:00,
2013-01-17 18:45:00,38.5,25.4,30.40,NNE,19,0.0,0.0,59,0.00,,,0.00,VWS V13.01,2013-01-18 00:45:00,
2013-01-17 18:50:00,38.1,25.1,30.40,NNE,19,0.0,0.0,59,0.00,,,0.00,VWS V13.01,2013-01-18 00:50:00,
2013-01-17 18:55:00,37.9,24.9,30.40,NNE,19,0.0,0.0,59,0.00,,,0.00,VWS V13.01,2013-01-18 00:55:00,
2013-01-17 19:00:00,37.9,25.3,30.42,NNE,19,0.0,0.0,60,0.00,,,0.00,VWS V13.01,2013-01-18 01:00:00,
2013-01-17 19:05:00,37.2,24.6,30.42,North,355,0.0,0.0,60,0.00,,,0.00,VWS V13.01,2013-01-18 01:05:00,
2013-01-17 19:10:00,36.7,24.5,30.42,North,355,0.0,0.0,61,0.00,,,0.00,VWS V13.01,2013-01-18 01:10:00,
2013-01-17 19:15:00,35.9,24.6,30.42,North,355,0.0,0.0,63,0.00,,,0.00,VWS V13.01,2013-01-18 01:15:00,
2013-01-17 19:20:00,35.4,24.5,30.42,North,355,0.0,0.0,64,0.00,,,0.00,VWS V13.01,2013-01-18 01:20:00,
2013-01-17 19:25:00,34.9,24.3,30.42,North,355,0.0,0.0,65,0.00,,,0.00,VWS V13.01,2013-01-18 01:25:00,
2013-01-17 19:30:00,34.3,24.5,30.42,North,355,0.0,0.0,67,0.00,,,0.00,VWS V13.01,2013-01-18 01:30:00,
2013-01-17 19:35:00,34.0,24.5,30.42,North,355,0.0,0.0,68,0.00,,,0.00,VWS V13.01,2013-01-18 01:35:00,
2013-01-17 19:40:00,33.6,24.5,30.42,North,355,0.0,0.0,69,0.00,,,0.00,VWS V13.01,2013-01-18 01:40:00,
2013-01-17 19:45:00,33.4,24.4,30.42,North,355,0.0,0.0,69,0.00,,,0.00,VWS V13.01,2013-01-18 01:45:00,
2013-01-17 19:50:00,33.2,24.5,30.42,WNW,290,0.0,0.0,70,0.00,,,0.00,VWS V13.01,2013-01-18 01:50:00,
2013-01-17 19:55:00,33.1,24.4,30.42,WNW,290,0.0,0.0,70,0.00,,,0.00,VWS V13.01,2013-01-18 01:55:00,
2013-01-17 20:00:00,32.9,23.8,30.42,WNW,290,0.0,0.0,69,0.00,,,0.00,VWS V13.01,2013-01-18 02:00:00,
2013-01-17 20:05:00,32.7,23.7,30.42,WNW,290,0.0,0.0,69,0.00,,,0.00,VWS V13.01,2013-01-18 02:05:00,
2013-01-17 20:10:00,32.3,23.7,30.42,WNW,290,0.0,0.0,70,0.00,,,0.00,VWS V13.01,2013-01-18 02:10:00,
2013-01-17 20:15:00,32.2,24.2,30.42,NNW,339,0.0,2.2,72,0.00,,,0.00,VWS V13.01,2013-01-18 02:15:00,
2013-01-17 20:20:00,32.0,24.0,30.42,NNW,339,0.0,2.2,72,0.00,,,0.00,VWS V13.01,2013-01-18 02:20:00,
2013-01-17 20:25:00,31.8,23.8,30.42,North,1,2.7,3.1,72,0.00,,,0.00,VWS V13.01,2013-01-18 02:25:00,
2013-01-17 20:30:00,31.6,24.0,30.42,NNE,19,0.0,0.0,73,0.00,,,0.00,VWS V13.01,2013-01-18 02:30:00,
2013-01-17 20:35:00,31.3,23.6,30.42,North,7,0.0,0.0,73,0.00,,,0.00,VWS V13.01,2013-01-18 02:35:00,
2013-01-17 20:40:00,31.3,23.6,30.42,NNE,15,2.2,2.7,73,0.00,,,0.00,VWS V13.01,2013-01-18 02:40:00,
2013-01-17 20:45:00,30.9,23.3,30.42,SE,139,0.0,0.0,73,0.00,,,0.00,VWS V13.01,2013-01-18 02:45:00,
2013-01-17 20:50:00,30.7,23.4,30.42,ENE,61,0.0,0.0,74,0.00,,,0.00,VWS V13.01,2013-01-18 02:50:00,
2013-01-17 20:55:00,30.7,23.8,30.42,NW,307,0.0,0.0,75,0.00,,,0.00,VWS V13.01,2013-01-18 02:55:00,
2013-01-17 21:00:00,30.2,23.5,30.45,NNE,15,0.0,4.0,76,0.00,,,0.00,VWS V13.01,2013-01-18 03:00:00,
2013-01-17 21:05:00,30.0,23.4,30.45,NNE,15,0.0,0.0,76,0.00,,,0.00,VWS V13.01,2013-01-18 03:05:00,
2013-01-17 21:10:00,29.6,23.3,30.45,NE,41,3.1,4.0,77,0.00,,,0.00,VWS V13.01,2013-01-18 03:10:00,
2013-01-17 21:15:00,29.3,22.7,30.45,NE,45,2.2,2.7,76,0.00,,,0.00,VWS V13.01,2013-01-18 03:15:00,
2013-01-17 21:20:00,29.1,22.8,30.45,NNE,15,0.0,0.0,77,0.00,,,0.00,VWS V13.01,2013-01-18 03:20:00,
2013-01-17 21:25:00,29.1,23.4,30.45,NNE,15,0.0,0.0,79,0.00,,,0.00,VWS V13.01,2013-01-18 03:25:00,
2013-01-17 21:30:00,29.1,23.7,30.45,NW,325,0.0,0.0,80,0.00,,,0.00,VWS V13.01,2013-01-18 03:30:00,
2013-01-17 21:35:00,29.1,23.7,30.45,NW,325,0.0,0.0,80,0.00,,,0.00,VWS V13.01,2013-01-18 03:35:00,
2013-01-17 21:40:00,28.7,23.1,30.45,North,4,0.0,0.0,79,0.00,,,0.00,VWS V13.01,2013-01-18 03:40:00,
2013-01-17 21:45:00,28.4,22.4,30.45,NE,50,2.7,2.7,78,0.00,,,0.00,VWS V13.01,2013-01-18 03:45:00,
2013-01-17 21:50:00,28.0,23.0,30.45,NNE,13,3.1,3.6,81,0.00,,,0.00,VWS V13.01,2013-01-18 03:50:00,
2013-01-17 21:55:00,27.8,23.1,30.45,NW,322,2.7,2.7,82,0.00,,,0.00,VWS V13.01,2013-01-18 03:55:00,
2013-01-17 22:00:00,28.6,23.8,30.45,NW,326,3.1,3.1,82,0.00,,,0.00,VWS V13.01,2013-01-18 04:00:00,
2013-01-17 22:05:00,28.6,23.2,30.45,North,356,2.7,2.7,80,0.00,,,0.00,VWS V13.01,2013-01-18 04:05:00,
2013-01-17 22:10:00,28.4,22.7,30.45,SSE,150,2.2,2.7,79,0.00,,,0.00,VWS V13.01,2013-01-18 04:10:00,
2013-01-17 22:15:00,27.8,22.2,30.48,SSE,151,0.0,0.0,79,0.00,,,0.00,VWS V13.01,2013-01-18 04:15:00,
2013-01-17 22:20:00,27.5,22.1,30.48,SSE,151,0.0,0.0,80,0.00,,,0.00,VWS V13.01,2013-01-18 04:20:00,
2013-01-17 22:25:00,27.7,23.2,30.48,SSE,151,0.0,0.0,83,0.00,,,0.00,VWS V13.01,2013-01-18 04:25:00,
2013-01-17 22:30:00,27.7,23.5,30.48,SSE,151,0.0,0.0,84,0.00,,,0.00,VWS V13.01,2013-01-18 04:30:00,
2013-01-17 22:35:00,27.5,22.4,30.48,NE,35,0.0,0.0,81,0.00,,,0.00,VWS V13.01,2013-01-18 04:35:00,
2013-01-17 22:40:00,27.5,22.7,30.48,NE,35,0.0,0.0,82,0.00,,,0.00,VWS V13.01,2013-01-18 04:40:00,
2013-01-17 22:45:00,27.3,22.5,30.48,NNW,329,0.0,0.0,82,0.00,,,0.00,VWS V13.01,2013-01-18 04:45:00,
2013-01-17 22:50:00,27.1,22.4,30.48,NNW,329,0.0,0.0,82,0.00,,,0.00,VWS V13.01,2013-01-18 04:50:00,
2013-01-17 22:55:00,27.1,22.6,30.48,NNW,329,0.0,0.0,83,0.00,,,0.00,VWS V13.01,2013-01-18 04:55:00,
2013-01-17 23:00:00,26.8,22.3,30.48,NNW,345,0.0,0.0,83,0.00,,,0.00,VWS V13.01,2013-01-18 05:00:00,
2013-01-17 23:03:00,26.8,22.3,30.48,NNW,345,0.0,0.0,83,0.00,,,0.00,VWS V13.01,2013-01-18 05:03:00,
2013-01-17 23:08:00,26.6,22.4,30.48,North,358,0.0,0.0,84,0.00,,,0.00,VWS V13.01,2013-01-18 05:08:00,
2013-01-17 23:13:00,26.4,22.2,30.48,NE,50,0.0,0.0,84,0.00,,,0.00,VWS V13.01,2013-01-18 05:13:00,
2013-01-17 23:18:00,26.0,21.9,30.51,East,85,2.2,2.2,84,0.00,,,0.00,VWS V13.01,2013-01-18 05:18:00,
2013-01-17 23:23:00,26.0,22.2,30.51,East,93,2.2,2.2,85,0.00,,,0.00,VWS V13.01,2013-01-18 05:23:00,
2013-01-17 23:28:00,26.2,23.4,30.51,ENE,57,2.2,2.2,89,0.00,,,0.00,VWS V13.01,2013-01-18 05:28:00,
2013-01-17 23:33:00,26.6,24.3,30.51,ENE,57,0.0,0.0,91,0.00,,,0.00,VWS V13.01,2013-01-18 05:33:00,
2013-01-17 23:38:00,26.8,24.0,30.51,ENE,57,0.0,0.0,89,0.00,,,0.00,VWS V13.01,2013-01-18 05:38:00,
2013-01-17 23:43:00,26.6,22.7,30.51,North,2,0.0,0.0,85,0.00,,,0.00,VWS V13.01,2013-01-18 05:43:00,
2013-01-17 23:48:00,26.4,23.3,30.51,North,360,0.0,0.0,88,0.00,,,0.00,VWS V13.01,2013-01-18 05:48:00,
2013-01-17 23:53:00,26.0,22.4,30.51,NNW,339,0.0,0.0,86,0.00,,,0.00,VWS V13.01,2013-01-18 05:53:00,
2013-01-17 23:58:00,25.9,22.0,30.51,NNW,345,0.0,0.0,85,0.00,,,0.00,VWS V13.01,2013-01-18 05:58:00,